createdAt,value
2019-02-28T00:01:57.116Z,95350.60
2019-02-28T00:04:32.115Z,95349.99
2019-02-28T00:06:58.176Z,95348.77
2019-02-28T00:09:27.817Z,95343.72
2019-02-28T00:11:57.496Z,95341.56
2019-02-28T00:14:27.849Z,95339.30
2019-02-28T00:16:57.969Z,95337.66
2019-02-28T00:19:27.651Z,95343.30
2019-02-28T00:21:57.392Z,95337.95
2019-02-28T00:24:29.812Z,95333.15
2019-02-28T00:26:58.448Z,95333.66
2019-02-28T00:29:28.024Z,95332.91
2019-02-28T00:31:57.782Z,95328.90
2019-02-28T00:34:27.359Z,95330.66
2019-02-28T00:36:57.168Z,95324.89
2019-02-28T00:39:26.792Z,95333.84
2019-02-28T00:41:56.435Z,95332.51
2019-02-28T00:44:30.458Z,95329.31
2019-02-28T00:46:57.442Z,95326.03
2019-02-28T00:49:27.078Z,95323.97
2019-02-28T00:51:56.868Z,95332.21
2019-02-28T00:54:26.488Z,95325.83
2019-02-28T00:56:56.212Z,95328.81
2019-02-28T00:59:25.792Z,95319.79
2019-02-28T01:01:55.419Z,95321.13
2019-02-28T01:04:25.105Z,95316.79
2019-02-28T01:06:54.737Z,95319.17
2019-02-28T01:09:27.102Z,95320.90
2019-02-28T01:11:55.888Z,95312.07
2019-02-28T01:14:25.594Z,95311.36
2019-02-28T01:16:55.207Z,95304.66
2019-02-28T01:19:24.916Z,95309.00
2019-02-28T01:21:55.378Z,95304.58
2019-02-28T01:24:25.873Z,95305.17
2019-02-28T01:26:55.575Z,95305.69
2019-02-28T01:29:25.210Z,95304.68
2019-02-28T01:31:54.891Z,95297.25
2019-02-28T01:34:24.416Z,95297.58
2019-02-28T01:36:54.173Z,95296.25
2019-02-28T01:39:23.825Z,95295.63
2019-02-28T01:41:53.568Z,95296.66
2019-02-28T01:44:23.437Z,95300.86
2019-02-28T01:46:53.520Z,95291.52
2019-02-28T01:49:25.962Z,95293.67
2019-02-28T01:51:54.954Z,95285.23
2019-02-28T01:54:25.152Z,95278.26
2019-02-28T01:56:56.163Z,95281.75
2019-02-28T01:59:25.816Z,95284.31
2019-02-28T02:01:55.522Z,95284.73
2019-02-28T02:04:25.173Z,95285.98
2019-02-28T02:06:59.677Z,95284.31
2019-02-28T02:09:27.760Z,95283.72
2019-02-28T02:11:59.044Z,95284.31
2019-02-28T02:14:28.868Z,95287.80
2019-02-28T02:17:01.097Z,95285.23
2019-02-28T02:19:30.015Z,95285.98
2019-02-28T02:21:59.662Z,95291.32
2019-02-28T02:24:29.291Z,95288.03
2019-02-28T02:26:58.990Z,95284.31
2019-02-28T02:29:28.714Z,95291.11
2019-02-28T02:32:01.152Z,95284.11
2019-02-28T02:34:29.931Z,95292.55
2019-02-28T02:36:59.681Z,95283.50
2019-02-28T02:39:29.306Z,95284.02
2019-02-28T02:41:58.991Z,95278.55
2019-02-28T02:44:31.755Z,95275.17
2019-02-28T02:47:00.161Z,95273.95
2019-02-28T02:49:29.799Z,95268.81
2019-02-28T02:51:59.469Z,95263.36
2019-02-28T02:54:29.233Z,95260.50
2019-02-28T02:56:58.810Z,95257.72
2019-02-28T02:59:28.498Z,95253.49
2019-02-28T03:01:58.121Z,95256.78
2019-02-28T03:04:27.832Z,95257.50
2019-02-28T03:06:57.433Z,95250.23
2019-02-28T03:09:27.145Z,95253.30
2019-02-28T03:11:57.716Z,95255.34
2019-02-28T03:14:28.322Z,95249.00
2019-02-28T03:16:57.913Z,95248.57
2019-02-28T03:19:33.224Z,95246.41
2019-02-28T03:21:58.992Z,95250.82
2019-02-28T03:24:28.687Z,95241.47
2019-02-28T03:26:58.500Z,95250.11
2019-02-28T03:29:28.199Z,95243.84
2019-02-28T03:31:59.639Z,95239.32
2019-02-28T03:34:29.420Z,95235.94
2019-02-28T03:36:59.100Z,95238.61
2019-02-28T03:39:28.792Z,95242.31
2019-02-28T03:41:58.397Z,95239.34
2019-02-28T03:44:28.030Z,95236.25
2019-02-28T03:46:57.719Z,95243.23
2019-02-28T03:49:27.335Z,95240.88
2019-02-28T03:51:57.047Z,95241.08
2019-02-28T03:54:28.840Z,95236.03
2019-02-28T03:56:58.102Z,95239.45
2019-02-28T03:59:27.720Z,95241.70
2019-02-28T04:01:57.428Z,95235.64
2019-02-28T04:04:27.123Z,95239.94
2019-02-28T04:06:56.810Z,95235.44
2019-02-28T04:09:26.543Z,95231.02
2019-02-28T04:11:56.057Z,95222.77
2019-02-28T04:14:28.508Z,95224.11
2019-02-28T04:16:57.255Z,95224.75
2019-02-28T04:19:26.931Z,95218.77
2019-02-28T04:21:56.570Z,95218.66
2019-02-28T04:24:26.248Z,95220.95
2019-02-28T04:26:55.934Z,95218.77
2019-02-28T04:29:29.829Z,95218.57
2019-02-28T04:31:58.062Z,95218.17
2019-02-28T04:34:27.878Z,95219.09
2019-02-28T04:36:57.670Z,95222.18
2019-02-28T04:39:27.207Z,95220.00
2019-02-28T04:41:56.819Z,95224.00
2019-02-28T04:44:26.490Z,95222.28
2019-02-28T04:46:56.223Z,95223.29
2019-02-28T04:49:26.015Z,95228.34
2019-02-28T04:51:55.798Z,95228.86
2019-02-28T04:54:27.816Z,95223.62
2019-02-28T04:56:56.895Z,95225.25
2019-02-28T04:59:26.501Z,95228.54
2019-02-28T05:01:56.238Z,95222.58
2019-02-28T05:04:26.075Z,95222.87
2019-02-28T05:06:55.918Z,95224.33
2019-02-28T05:09:25.642Z,95227.92
2019-02-28T05:11:55.475Z,95221.44
2019-02-28T05:14:25.175Z,95224.95
2019-02-28T05:16:54.883Z,95223.00
2019-02-28T05:19:24.516Z,95220.09
2019-02-28T05:21:56.237Z,95221.66
2019-02-28T05:24:25.897Z,95223.62
2019-02-28T05:26:57.334Z,95220.00
2019-02-28T05:29:27.381Z,95224.66
2019-02-28T05:31:58.134Z,95230.69
2019-02-28T05:34:28.744Z,95236.23
2019-02-28T05:36:58.579Z,95233.90
2019-02-28T05:39:31.006Z,95235.86
2019-02-28T05:41:59.888Z,95236.99
2019-02-28T05:44:29.609Z,95238.44
2019-02-28T05:46:59.399Z,95251.91
2019-02-28T05:49:29.111Z,95249.23
2019-02-28T05:51:59.784Z,95255.91
2019-02-28T05:54:29.480Z,95262.59
2019-02-28T05:56:59.293Z,95263.48
2019-02-28T05:59:28.905Z,95271.72
2019-02-28T06:01:58.589Z,95269.05
2019-02-28T06:04:28.303Z,95272.34
2019-02-28T06:06:58.015Z,95275.50
2019-02-28T06:09:27.763Z,95279.22
2019-02-28T06:11:57.356Z,95275.83
2019-02-28T06:14:27.791Z,95280.05
2019-02-28T06:16:57.499Z,95279.20
2019-02-28T06:19:27.095Z,95272.22
2019-02-28T06:21:59.477Z,95281.17
2019-02-28T06:24:28.174Z,95283.03
2019-02-28T06:26:57.852Z,95287.33
2019-02-28T06:29:27.556Z,95286.41
2019-02-28T06:31:57.214Z,95277.98
2019-02-28T06:34:26.882Z,95285.06
2019-02-28T06:36:56.565Z,95280.66
2019-02-28T06:39:27.577Z,95283.22
2019-02-28T06:41:57.473Z,95278.19
2019-02-28T06:44:27.757Z,95276.34
2019-02-28T06:46:57.413Z,95272.22
2019-02-28T06:49:26.997Z,95272.66
2019-02-28T06:51:56.742Z,95274.17
2019-02-28T06:54:26.349Z,95282.28
2019-02-28T06:56:55.934Z,95276.19
2019-02-28T06:59:25.623Z,95273.59
2019-02-28T07:01:57.575Z,95274.48
2019-02-28T07:04:26.793Z,95268.84
2019-02-28T07:06:56.538Z,95271.92
2019-02-28T07:09:26.214Z,95273.55
2019-02-28T07:11:55.928Z,95264.80
2019-02-28T07:14:25.653Z,95261.61
2019-02-28T07:16:55.268Z,95259.70
2019-02-28T07:19:26.238Z,95252.64
2019-02-28T07:21:56.337Z,95252.63
2019-02-28T07:24:26.493Z,95254.52
2019-02-28T07:26:56.260Z,95251.29
2019-02-28T07:29:25.983Z,95237.80
2019-02-28T07:32:00.034Z,95250.42
2019-02-28T07:34:27.040Z,95249.10
2019-02-28T07:36:56.822Z,95239.77
2019-02-28T07:39:26.550Z,95242.95
2019-02-28T07:41:58.796Z,95243.36
2019-02-28T07:44:27.702Z,95239.25
2019-02-28T07:46:57.325Z,95246.61
2019-02-28T07:49:27.065Z,95241.27
2019-02-28T07:51:57.223Z,95244.81
2019-02-28T07:54:27.883Z,95249.91
2019-02-28T07:56:57.550Z,95243.01
2019-02-28T07:59:27.189Z,95245.84
2019-02-28T08:01:59.889Z,95243.30
2019-02-28T08:04:28.461Z,95246.91
2019-02-28T08:06:58.067Z,95240.88
2019-02-28T08:09:29.731Z,95234.03
2019-02-28T08:11:59.486Z,95241.36
2019-02-28T08:14:29.259Z,95243.43
2019-02-28T08:16:58.949Z,95237.20
2019-02-28T08:19:28.664Z,95241.83
2019-02-28T08:21:59.369Z,95244.52
2019-02-28T08:24:29.016Z,95240.50
2019-02-28T08:26:58.829Z,95241.00
2019-02-28T08:29:28.571Z,95245.33
2019-02-28T08:31:58.264Z,95246.66
2019-02-28T08:34:27.978Z,95255.70
2019-02-28T08:36:57.673Z,95245.52
2019-02-28T08:39:27.450Z,95248.69
2019-02-28T08:42:02.567Z,95249.30
2019-02-28T08:44:29.568Z,95247.36
2019-02-28T08:46:59.199Z,95242.11
2019-02-28T08:49:29.008Z,95228.73
2019-02-28T08:51:58.617Z,95229.25
2019-02-28T08:54:28.325Z,95227.80
2019-02-28T08:56:58.018Z,95212.19
2019-02-28T08:59:27.729Z,95207.47
2019-02-28T09:01:57.439Z,95199.61
2019-02-28T09:04:27.075Z,95190.69
2019-02-28T09:06:56.758Z,95193.06
2019-02-28T09:09:26.386Z,95192.86
2019-02-28T09:11:58.008Z,95180.61
2019-02-28T09:14:27.446Z,95183.77
2019-02-28T09:16:57.133Z,95180.08
2019-02-28T09:19:26.772Z,95180.77
2019-02-28T09:21:56.469Z,95179.23
2019-02-28T09:24:26.167Z,95179.23
2019-02-28T09:26:55.895Z,95166.45
2019-02-28T09:29:25.614Z,95167.69
2019-02-28T09:31:56.225Z,95167.88
2019-02-28T09:34:26.130Z,95163.54
2019-02-28T09:36:56.886Z,95170.78
2019-02-28T09:39:26.500Z,95166.34
2019-02-28T09:41:56.212Z,95162.06
2019-02-28T09:44:26.044Z,95160.91
2019-02-28T09:46:55.641Z,95162.44
2019-02-28T09:49:25.360Z,95166.21
2019-02-28T09:51:54.953Z,95158.28
2019-02-28T09:54:25.530Z,95159.52
2019-02-28T09:56:55.178Z,95153.64
2019-02-28T09:59:24.835Z,95155.59
2019-02-28T10:02:01.112Z,95160.63
2019-02-28T10:04:27.361Z,95152.49
2019-02-28T10:06:57.307Z,95145.37
2019-02-28T10:09:26.927Z,95136.40
2019-02-28T10:11:56.614Z,95140.79
2019-02-28T10:14:28.818Z,95131.86
2019-02-28T10:16:57.783Z,95134.02
2019-02-28T10:19:27.410Z,95129.52
2019-02-28T10:21:57.148Z,95125.50
2019-02-28T10:24:28.389Z,95115.48
2019-02-28T10:26:58.261Z,95108.70
2019-02-28T10:29:27.872Z,95105.02
2019-02-28T10:31:57.683Z,95099.81
2019-02-28T10:34:27.510Z,95091.20
2019-02-28T10:36:57.313Z,95081.70
2019-02-28T10:39:27.172Z,95081.88
2019-02-28T10:41:57.086Z,95072.22
2019-02-28T10:44:30.345Z,95068.59
2019-02-28T10:46:58.298Z,95058.78
2019-02-28T10:49:27.936Z,95065.91
2019-02-28T10:51:57.549Z,95057.88
2019-02-28T10:54:27.139Z,95058.98
2019-02-28T10:56:56.845Z,95047.84
2019-02-28T10:59:26.546Z,95048.61
2019-02-28T11:01:56.257Z,95041.56
2019-02-28T11:04:27.524Z,95036.86
2019-02-28T11:06:59.303Z,95034.11
2019-02-28T11:09:28.665Z,95028.74
2019-02-28T11:11:58.479Z,95022.16
2019-02-28T11:14:28.210Z,95017.30
2019-02-28T11:16:59.429Z,95013.66
2019-02-28T11:19:29.285Z,95009.22
2019-02-28T11:22:01.535Z,95003.50
2019-02-28T11:24:30.425Z,94998.43
2019-02-28T11:27:00.079Z,94997.17
2019-02-28T11:29:29.746Z,94993.81
2019-02-28T11:31:59.374Z,94993.69
2019-02-28T11:34:29.059Z,94990.48
2019-02-28T11:36:58.679Z,94985.50
2019-02-28T11:39:30.530Z,94981.48
2019-02-28T11:41:59.626Z,94972.94
2019-02-28T11:44:29.337Z,94971.16
2019-02-28T11:46:59.037Z,94966.61
2019-02-28T11:49:29.456Z,94963.36
2019-02-28T11:51:59.199Z,94952.73
2019-02-28T11:54:28.889Z,94948.48
2019-02-28T11:57:02.510Z,94952.50
2019-02-28T11:59:29.953Z,94938.66
2019-02-28T12:01:59.596Z,94937.04
2019-02-28T12:04:29.274Z,94927.51
2019-02-28T12:07:00.841Z,94926.63
2019-02-28T12:09:30.331Z,94920.53
2019-02-28T12:11:59.971Z,94913.84
2019-02-28T12:14:30.143Z,94914.97
2019-02-28T12:16:59.796Z,94901.34
2019-02-28T12:19:29.477Z,94897.34
2019-02-28T12:22:00.175Z,94893.31
2019-02-28T12:24:32.386Z,94887.97
2019-02-28T12:27:01.280Z,94887.36
2019-02-28T12:29:30.718Z,94884.48
2019-02-28T12:32:00.315Z,94876.38
2019-02-28T12:34:30.070Z,94872.58
2019-02-28T12:36:59.991Z,94870.55
2019-02-28T12:39:29.736Z,94873.98
2019-02-28T12:42:00.304Z,94869.20
2019-02-28T12:44:30.133Z,94861.77
2019-02-28T12:46:59.782Z,94865.86
2019-02-28T12:49:29.413Z,94859.91
2019-02-28T12:51:59.097Z,94852.23
2019-02-28T12:54:30.397Z,94832.16
2019-02-28T12:57:00.162Z,94843.70
2019-02-28T12:59:29.802Z,94837.65
2019-02-28T13:01:59.438Z,94831.73
2019-02-28T13:04:29.245Z,94833.11
2019-02-28T13:06:59.527Z,94822.92
2019-02-28T13:09:30.244Z,94823.80
2019-02-28T13:11:59.973Z,94814.67
2019-02-28T13:14:29.606Z,94819.86
2019-02-28T13:16:59.176Z,94816.16
2019-02-28T13:19:28.831Z,94808.33
2019-02-28T13:21:58.562Z,94802.66
2019-02-28T13:24:28.270Z,94796.48
2019-02-28T13:26:57.920Z,94793.74
2019-02-28T13:29:28.820Z,94789.72
2019-02-28T13:32:01.433Z,94783.91
2019-02-28T13:34:30.361Z,94775.06
2019-02-28T13:37:02.951Z,94783.09
2019-02-28T13:39:32.742Z,94776.09
2019-02-28T13:42:04.334Z,94769.70
2019-02-28T13:44:36.329Z,94761.73
2019-02-28T13:47:09.882Z,94757.73
2019-02-28T13:49:38.963Z,94758.47
2019-02-28T13:52:08.985Z,94756.39
2019-02-28T13:54:42.196Z,94749.37
2019-02-28T13:57:10.548Z,94739.48
2019-02-28T13:59:40.688Z,94745.36
2019-02-28T14:02:10.768Z,94739.05
2019-02-28T14:04:40.761Z,94735.03
2019-02-28T14:07:10.760Z,94738.52
2019-02-28T14:09:40.821Z,94734.31
2019-02-28T14:12:10.649Z,94734.31
2019-02-28T14:14:42.351Z,94730.77
2019-02-28T14:17:12.961Z,94727.27
2019-02-28T14:19:43.079Z,94731.75
2019-02-28T14:22:13.501Z,94728.61
2019-02-28T14:24:43.180Z,94730.41
2019-02-28T14:27:12.940Z,94724.75
2019-02-28T14:29:48.062Z,94726.09
2019-02-28T14:32:14.084Z,94724.72
2019-02-28T14:34:43.774Z,94719.98
2019-02-28T14:37:13.392Z,94718.18
2019-02-28T14:39:43.553Z,94721.11
2019-02-28T14:42:13.409Z,94712.76
2019-02-28T14:44:43.246Z,94711.36
2019-02-28T14:47:12.948Z,94710.02
2019-02-28T14:49:43.853Z,94702.52
2019-02-28T14:52:14.397Z,94690.19
2019-02-28T14:54:44.121Z,94701.64
2019-02-28T14:57:16.600Z,94695.48
2019-02-28T14:59:45.413Z,94700.62
2019-02-28T15:02:15.101Z,94693.86
2019-02-28T15:04:45.783Z,94699.28
2019-02-28T15:07:15.761Z,94699.28
2019-02-28T15:09:45.747Z,94694.39
2019-02-28T15:12:15.882Z,94692.45
2019-02-28T15:14:45.728Z,94690.00
2019-02-28T15:17:15.814Z,94687.10
2019-02-28T15:19:45.716Z,94679.88
2019-02-28T15:22:21.051Z,94677.32
2019-02-28T15:24:50.271Z,94675.33
2019-02-28T15:27:20.167Z,94668.58
2019-02-28T15:29:49.996Z,94671.25
2019-02-28T15:32:19.912Z,94677.73
2019-02-28T15:34:49.738Z,94669.85
2019-02-28T15:37:19.636Z,94670.38
2019-02-28T15:39:50.042Z,94670.38
2019-02-28T15:42:20.605Z,94670.63
2019-02-28T15:44:50.450Z,94661.48
2019-02-28T15:47:23.216Z,94668.11
2019-02-28T15:49:52.150Z,94663.56
2019-02-28T15:52:21.908Z,94658.98
2019-02-28T15:54:51.817Z,94655.78
2019-02-28T15:57:21.648Z,94650.11
2019-02-28T15:59:51.525Z,94650.11
2019-02-28T16:02:21.334Z,94654.38
2019-02-28T16:04:51.166Z,94652.11
2019-02-28T16:07:21.084Z,94644.94
2019-02-28T16:09:51.046Z,94638.86
2019-02-28T16:12:21.022Z,94642.38
2019-02-28T16:14:50.880Z,94642.73
2019-02-28T16:17:20.740Z,94633.61
2019-02-28T16:19:53.216Z,94645.75
2019-02-28T16:22:22.239Z,94648.87
2019-02-28T16:24:52.141Z,94642.39
2019-02-28T16:27:21.971Z,94645.75
2019-02-28T16:29:52.332Z,94652.30
2019-02-28T16:32:23.557Z,94654.66
2019-02-28T16:34:53.355Z,94648.15
2019-02-28T16:37:23.241Z,94651.42
2019-02-28T16:39:52.985Z,94646.81
2019-02-28T16:42:22.589Z,94641.52
2019-02-28T16:44:52.397Z,94642.92
2019-02-28T16:47:24.375Z,94647.74
2019-02-28T16:49:53.774Z,94643.02
2019-02-28T16:52:23.653Z,94645.63
2019-02-28T16:54:56.249Z,94649.14
2019-02-28T16:57:25.022Z,94649.36
2019-02-28T16:59:54.831Z,94649.02
2019-02-28T17:02:26.417Z,94652.44
2019-02-28T17:04:56.307Z,94652.38
2019-02-28T17:07:26.210Z,94655.86
2019-02-28T17:09:56.019Z,94658.44
2019-02-28T17:12:43.557Z,94654.98
2019-02-28T17:15:23.220Z,94655.45
2019-02-28T17:18:00.692Z,94661.86
2019-02-28T17:20:30.501Z,94658.06
2019-02-28T17:23:01.420Z,94656.03
2019-02-28T17:25:31.890Z,94655.03
2019-02-28T17:28:15.315Z,94667.80
2019-02-28T17:31:08.344Z,94661.73
2019-02-28T17:33:38.865Z,94649.88
2019-02-28T17:36:11.729Z,94648.23
2019-02-28T17:38:40.300Z,94647.96
2019-02-28T17:41:11.123Z,94643.14
2019-02-28T17:43:41.174Z,94640.46
2019-02-28T17:46:12.260Z,94640.93
2019-02-28T17:49:31.967Z,94634.70
2019-02-28T17:52:12.354Z,94631.91
2019-02-28T17:55:32.440Z,94616.64
2019-02-28T17:58:13.927Z,94618.70
2019-02-28T18:01:05.742Z,94612.23
2019-02-28T18:04:24.041Z,94600.97
2019-02-28T18:07:54.219Z,94596.77
2019-02-28T18:11:06.617Z,94609.52
2019-02-28T18:13:56.522Z,94596.77
2019-02-28T18:16:36.286Z,94581.70
2019-02-28T18:19:37.031Z,94599.25
2019-02-28T18:23:03.023Z,94601.44
2019-02-28T18:25:40.934Z,94611.95
2019-02-28T18:28:41.563Z,94610.83
2019-02-28T18:31:19.292Z,94606.34
2019-02-28T18:34:11.194Z,94591.13
2019-02-28T18:36:43.387Z,94596.36
2019-02-28T18:39:12.486Z,94609.27
2019-02-28T18:41:43.190Z,94608.69
2019-02-28T18:44:13.113Z,94608.93
2019-02-28T18:46:42.923Z,94608.00
2019-02-28T18:49:12.743Z,94609.95
2019-02-28T18:51:42.799Z,94597.25
2019-02-28T18:54:12.604Z,94606.06
2019-02-28T18:56:42.510Z,94620.44
2019-02-28T18:59:12.394Z,94605.94
2019-02-28T19:01:42.324Z,94619.52
2019-02-28T19:04:12.282Z,94616.99
2019-02-28T19:06:42.146Z,94622.13
2019-02-28T19:09:22.617Z,94626.73
2019-02-28T19:11:52.437Z,94617.30
2019-02-28T19:14:22.286Z,94624.80
2019-02-28T19:16:52.164Z,94600.30
2019-02-28T19:19:22.074Z,94634.98
2019-02-28T19:21:52.060Z,94628.70
2019-02-28T19:24:21.922Z,94608.53
2019-02-28T19:26:51.890Z,94619.73
2019-02-28T19:29:21.851Z,94616.84
2019-02-28T19:31:51.753Z,94628.48
2019-02-28T19:34:21.570Z,94610.55
2019-02-28T19:36:51.483Z,94600.31
2019-02-28T19:39:21.229Z,94607.53
2019-02-28T19:41:51.221Z,94613.91
2019-02-28T19:44:21.056Z,94605.60
2019-02-28T19:46:50.951Z,94598.45
2019-02-28T19:49:20.778Z,94596.36
2019-02-28T19:51:50.685Z,94589.39
2019-02-28T19:54:20.622Z,94598.76
2019-02-28T19:56:50.505Z,94579.55
2019-02-28T19:59:20.236Z,94586.41
2019-02-28T20:01:50.142Z,94585.06
2019-02-28T20:04:19.978Z,94582.51
2019-02-28T20:06:49.864Z,94589.83
2019-02-28T20:09:19.726Z,94586.59
2019-02-28T20:11:49.694Z,94587.15
2019-02-28T20:14:19.598Z,94590.30
2019-02-28T20:16:50.180Z,94582.57
2019-02-28T20:19:20.066Z,94595.61
2019-02-28T20:21:49.977Z,94578.84
2019-02-28T20:24:19.807Z,94592.16
2019-02-28T20:26:49.804Z,94592.91
2019-02-28T20:29:19.641Z,94612.11
2019-02-28T20:31:49.540Z,94601.59
2019-02-28T20:34:19.433Z,94588.02
2019-02-28T20:36:49.702Z,94591.81
2019-02-28T20:39:19.508Z,94599.84
2019-02-28T20:41:49.406Z,94588.55
2019-02-28T20:44:19.352Z,94590.08
2019-02-28T20:46:49.135Z,94585.39
2019-02-28T20:49:19.049Z,94583.25
2019-02-28T20:51:55.216Z,94585.46
2019-02-28T20:54:20.447Z,94590.88
2019-02-28T20:56:50.314Z,94593.23
2019-02-28T20:59:20.062Z,94602.58
2019-02-28T21:01:49.842Z,94585.06
2019-02-28T21:04:19.588Z,94592.22
2019-02-28T21:06:49.478Z,94590.63
2019-02-28T21:09:20.111Z,94593.74
2019-02-28T21:11:49.930Z,94593.03
2019-02-28T21:14:19.706Z,94596.83
2019-02-28T21:16:49.636Z,94598.38
2019-02-28T21:19:19.458Z,94596.89
2019-02-28T21:21:49.427Z,94609.21
2019-02-28T21:24:19.196Z,94593.91
2019-02-28T21:26:49.246Z,94589.30
2019-02-28T21:29:19.290Z,94587.09
2019-02-28T21:31:49.145Z,94589.89
2019-02-28T21:34:19.170Z,94591.63
2019-02-28T21:36:49.270Z,94598.63
2019-02-28T21:39:19.093Z,94599.13
2019-02-28T21:41:49.016Z,94593.67
2019-02-28T21:44:18.832Z,94597.44
2019-02-28T21:46:48.844Z,94604.20
2019-02-28T21:49:18.562Z,94602.70
2019-02-28T21:51:48.373Z,94610.02
2019-02-28T21:54:18.172Z,94612.83
2019-02-28T21:56:47.988Z,94609.89
2019-02-28T21:59:17.713Z,94607.22
2019-02-28T22:01:47.610Z,94603.11
2019-02-28T22:04:17.450Z,94612.23
2019-02-28T22:06:47.356Z,94611.89
2019-02-28T22:09:17.251Z,94608.34
2019-02-28T22:11:47.004Z,94602.73
2019-02-28T22:14:16.876Z,94605.94
2019-02-28T22:16:46.641Z,94611.30
2019-02-28T22:19:16.510Z,94613.69
2019-02-28T22:21:46.352Z,94612.81
2019-02-28T22:24:16.249Z,94603.45
2019-02-28T22:26:46.250Z,94606.41
2019-02-28T22:29:16.075Z,94602.05
2019-02-28T22:32:03.619Z,94590.54
2019-02-28T22:34:40.883Z,94581.64
2019-02-28T22:37:10.750Z,94577.84
2019-02-28T22:39:40.618Z,94574.89
2019-02-28T22:42:21.414Z,94574.70
2019-02-28T22:44:41.920Z,94581.33
2019-02-28T22:47:11.819Z,94584.78
2019-02-28T22:49:41.730Z,94578.03
2019-02-28T22:52:11.621Z,94577.78
2019-02-28T22:54:41.592Z,94578.59
2019-02-28T22:57:11.456Z,94584.78
2019-02-28T22:59:41.208Z,94586.39
2019-02-28T23:02:11.096Z,94596.36
2019-02-28T23:04:40.821Z,94603.51
2019-02-28T23:07:10.728Z,94605.94
2019-02-28T23:09:40.563Z,94596.64
2019-02-28T23:12:10.458Z,94597.84
2019-02-28T23:14:40.468Z,94591.47
2019-02-28T23:19:38.822Z,94594.95
2019-02-28T23:22:08.587Z,94595.83
2019-02-28T23:24:38.488Z,94597.05
2019-02-28T23:27:20.796Z,94599.97
2019-02-28T23:30:14.276Z,94590.23
2019-02-28T23:32:54.284Z,94589.20
2019-02-28T23:35:28.840Z,94586.22
2019-02-28T23:37:58.658Z,94576.91
2019-02-28T23:40:28.560Z,94577.72
2019-02-28T23:42:58.377Z,94577.72
2019-02-28T23:45:28.212Z,94576.84
2019-02-28T23:47:58.022Z,94572.27
2019-02-28T23:50:27.937Z,94568.36
2019-02-28T23:52:57.752Z,94572.90
2019-02-28T23:55:27.670Z,94569.88
2019-02-28T23:57:57.497Z,94573.70
